Time;durP1;ratioP1;P1;durP2;ratioP2;P2;SDS_P1;SDS_P2;PMS_P1;PMS_P2;Temp;Humidity;BMP_temperature;BMP_pressure;BME280_temperature;BME280_humidity;BME280_pressure;Samples;Min_cycle;Max_cycle;Signal;HPM_P1;HPM_P2
2022/05/24 00:00:18;;;;;;;;;1.33;1.33;;;;;16.96;60.98;99745.50;5098154;27;45465;-61
2022/05/24 00:02:44;;;;;;;;;3.33;2.00;;;;;16.92;60.89;99756.47;5096070;27;46284;-60
2022/05/24 00:05:10;;;;;;;;;4.00;4.00;;;;;16.97;61.32;99754.31;5096510;27;45442;-60
2022/05/24 00:07:37;;;;;;;;;2.00;2.00;;;;;17.00;60.43;99752.25;5098076;27;45465;-62
2022/05/24 00:10:05;;;;;;;;;1.67;1.67;;;;;17.06;60.92;99756.28;5094454;27;45516;-61
2022/05/24 00:12:31;;;;;;;;;1.33;1.33;;;;;17.02;60.53;99754.81;5097252;27;46547;-60
2022/05/24 00:17:40;;;;;;;;;2.00;2.00;;;;;16.88;60.57;99786.88;5098107;27;45461;-61
2022/05/24 00:20:06;;;;;;;;;2.33;2.00;;;;;16.76;60.06;99785.94;5097600;27;45390;-61
2022/05/24 00:22:31;;;;;;;;;2.00;2.00;;;;;16.73;59.73;99788.81;5097565;27;46393;-62
2022/05/24 00:25:01;;;;;;;;;2.67;2.00;;;;;16.69;60.14;99792.69;5080219;27;45492;-61
2022/05/24 00:27:27;;;;;;;;;3.00;2.00;;;;;16.71;60.44;99796.03;5076705;28;45432;-61
2022/05/24 00:29:52;;;;;;;;;2.67;2.67;;;;;16.70;60.33;99783.75;5078233;27;45414;-62
2022/05/24 00:32:18;;;;;;;;;4.00;2.00;;;;;16.71;60.35;99778.31;5077008;28;48341;-61
2022/05/24 00:34:43;;;;;;;;;3.33;2.00;;;;;16.70;60.36;99771.31;5075913;28;45437;-61
2022/05/24 00:37:08;;;;;;;;;2.00;2.00;;;;;16.73;60.24;99780.84;5077106;28;45495;-62
2022/05/24 00:39:33;;;;;;;;;3.00;2.00;;;;;16.75;59.57;99769.16;5076506;28;45450;-60
2022/05/24 00:42:07;;;;;;;;;3.00;2.00;;;;;16.75;59.39;99758.53;5076556;28;51894;-61
2022/05/24 00:44:38;;;;;;;;;2.00;2.00;;;;;16.81;59.87;99762.56;5075655;27;45994;-60
2022/05/24 00:47:25;;;;;;;;;2.00;2.00;;;;;16.76;59.24;99767.34;5076599;28;45541;-60
2022/05/24 00:49:59;;;;;;;;;2.00;2.00;;;;;16.80;59.08;99766.19;5065559;28;45418;-61
2022/05/24 00:52:51;;;;;;;;;2.67;2.00;;;;;16.79;59.43;99767.16;5077724;27;45352;-60
2022/05/24 00:55:22;;;;;;;;;1.00;1.00;;;;;16.69;58.76;99756.34;5059882;28;45455;-60
2022/05/24 00:58:02;;;;;;;;;1.00;1.00;;;;;16.68;59.39;99756.44;5076568;27;45454;-61
2022/05/24 01:00:28;;;;;;;;;1.00;1.00;;;;;16.66;58.64;99745.97;5076803;28;45561;-61
2022/05/24 01:02:53;;;;;;;;;3.00;3.00;;;;;16.65;58.20;99746.06;5074699;28;46591;-62
2022/05/24 01:05:25;;;;;;;;;3.00;1.33;;;;;16.60;58.56;99764.13;5076615;27;45447;-60
2022/05/24 01:07:50;;;;;;;;;1.33;1.33;;;;;16.60;59.24;99769.44;5074573;28;45424;-60
2022/05/24 01:10:43;;;;;;;;;2.67;2.67;;;;;16.52;59.36;99770.00;5074495;28;45446;-61
2022/05/24 01:13:13;;;;;;;;;3.00;3.00;;;;;16.45;58.55;99756.34;5076016;28;46210;-62
2022/05/24 01:15:40;;;;;;;;;3.00;3.00;;;;;16.53;58.88;99775.22;5075780;28;45545;-60
2022/05/24 01:18:06;;;;;;;;;1.00;1.00;;;;;16.48;57.84;99765.91;5080386;27;45529;-61
2022/05/24 01:20:31;;;;;;;;;2.00;2.00;;;;;16.46;57.84;99787.22;5096176;27;45588;-61
2022/05/24 01:23:04;;;;;;;;;1.00;1.00;;;;;16.32;58.84;99782.09;5096278;27;45403;-60
2022/05/24 01:25:40;;;;;;;;;1.00;1.00;;;;;16.37;58.13;99777.28;5096794;27;45399;-60
2022/05/24 01:28:13;;;;;;;;;1.00;1.00;;;;;16.37;58.41;99784.41;5093781;27;45395;-62
2022/05/24 01:30:38;;;;;;;;;3.33;2.00;;;;;16.40;57.72;99784.19;5096814;27;45499;-61
2022/05/24 01:38:32;;;;;;;;;1.00;1.00;;;;;16.39;57.85;99783.34;5096612;27;45453;-60
2022/05/24 01:40:58;;;;;;;;;1.00;1.00;;;;;16.47;57.89;99786.28;5094903;27;45421;-61
2022/05/24 01:43:26;;;;;;;;;1.00;1.00;;;;;16.51;57.21;99776.28;5096480;27;45469;-61
2022/05/24 01:45:57;;;;;;;;;2.00;1.33;;;;;16.49;58.27;99784.34;5095632;27;45488;-60
2022/05/24 01:48:31;;;;;;;;;2.33;1.00;;;;;16.57;57.89;99795.25;5094790;27;45472;-60
2022/05/24 01:50:59;;;;;;;;;1.00;1.00;;;;;16.60;57.55;99788.88;5095185;27;45580;-61
2022/05/24 01:53:31;;;;;;;;;1.67;1.67;;;;;16.62;57.16;99797.56;5096314;27;45541;-61
2022/05/24 01:56:00;;;;;;;;;1.00;1.00;;;;;16.62;57.73;99813.50;5096204;27;45556;-61
2022/05/24 01:58:31;;;;;;;;;1.00;1.00;;;;;16.40;57.80;99782.38;5096377;27;45604;-61
2022/05/24 02:01:03;;;;;;;;;0.33;0.33;;;;;16.40;56.91;99805.41;5096596;27;45517;-61
2022/05/24 02:03:28;;;;;;;;;1.00;0.00;;;;;16.40;58.22;99810.72;5095496;27;45427;-61
2022/05/24 02:05:53;;;;;;;;;1.00;1.00;;;;;16.40;57.59;99816.03;5096170;27;45521;-61
2022/05/24 02:08:20;;;;;;;;;1.67;1.67;;;;;16.31;57.54;99810.44;5087826;27;45501;-61
2022/05/24 02:11:01;;;;;;;;;1.33;1.33;;;;;16.30;57.46;99800.75;5074388;28;45402;-61
2022/05/24 02:13:33;;;;;;;;;2.67;1.00;;;;;16.25;58.14;99800.22;5082279;27;45534;-61
2022/05/24 02:16:06;;;;;;;;;2.00;1.00;;;;;16.24;57.86;99803.84;5095826;27;45449;-61
2022/05/24 02:18:32;;;;;;;;;0.00;0.00;;;;;16.20;57.62;99791.78;5096198;27;45448;-61
2022/05/24 02:20:58;;;;;;;;;0.33;0.33;;;;;16.13;57.62;99799.31;5096147;27;45477;-61
2022/05/24 02:23:24;;;;;;;;;0.67;0.67;;;;;16.08;57.32;99804.09;5094600;27;45594;-61
2022/05/24 02:25:52;;;;;;;;;1.67;1.00;;;;;15.98;57.69;99797.75;5095943;27;45409;-61
2022/05/24 02:28:21;;;;;;;;;2.00;0.67;;;;;15.95;57.32;99797.97;5091175;27;45516;-61
2022/05/24 02:30:50;;;;;;;;;1.00;1.00;;;;;15.93;57.59;99788.41;5075466;28;45485;-61
2022/05/24 02:33:18;;;;;;;;;0.33;0.33;;;;;16.07;57.52;99802.41;5075478;28;45501;-61
2022/05/24 02:35:43;;;;;;;;;2.00;1.00;;;;;16.04;57.40;99810.59;5075373;28;45430;-61
2022/05/24 02:38:08;;;;;;;;;1.00;1.00;;;;;15.99;58.17;99815.38;5075545;28;45352;-61
2022/05/24 02:43:18;;;;;;;;;1.00;1.00;;;;;16.04;57.18;99807.06;5075422;27;45466;-61
2022/05/24 02:45:43;;;;;;;;;1.00;1.00;;;;;16.03;57.26;99811.53;5075131;28;45371;-61
2022/05/24 02:48:09;;;;;;;;;1.00;1.00;;;;;16.03;57.26;99808.88;5075303;28;45366;-61
2022/05/24 02:50:34;;;;;;;;;0.00;0.00;;;;;16.04;57.96;99815.91;5075367;28;45532;-61
2022/05/24 02:53:00;;;;;;;;;1.00;1.00;;;;;16.06;57.40;99819.28;5075017;28;45379;-61
2022/05/24 02:55:25;;;;;;;;;1.00;1.00;;;;;16.08;57.45;99817.38;5075219;28;45331;-61
2022/05/24 02:57:50;;;;;;;;;1.00;1.00;;;;;16.09;57.33;99816.44;5081196;27;45402;-61
2022/05/24 03:00:20;;;;;;;;;0.67;0.00;;;;;16.09;58.08;99826.16;5099380;27;45581;-61
2022/05/24 03:02:46;;;;;;;;;0.67;0.67;;;;;16.15;57.00;99827.53;5099094;27;45906;-61
2022/05/24 03:05:13;;;;;;;;;0.00;0.00;;;;;16.05;56.97;99820.25;5099056;27;45414;-61
2022/05/24 03:10:24;;;;;;;;;2.00;1.00;;;;;16.10;57.25;99838.50;5081127;27;45378;-61
2022/05/24 03:15:33;;;;;;;;;1.00;1.00;;;;;16.04;57.10;99837.13;5078550;28;45513;-61
2022/05/24 03:18:00;;;;;;;;;0.00;0.00;;;;;16.06;56.78;99843.13;5078659;27;45392;-61
2022/05/24 03:20:26;;;;;;;;;1.00;1.00;;;;;16.03;57.64;99835.41;5078699;28;45613;-61
2022/05/24 03:22:51;;;;;;;;;2.00;1.00;;;;;16.03;57.78;99842.53;5078281;27;45446;-61
2022/05/24 03:25:17;;;;;;;;;0.67;0.67;;;;;16.08;57.85;99843.03;5095940;27;45516;-61
2022/05/24 03:27:42;;;;;;;;;2.00;1.00;;;;;16.09;57.59;99850.91;5098993;27;45370;-61
2022/05/24 03:30:08;;;;;;;;;1.33;1.00;;;;;16.08;57.25;99858.97;5098807;27;45541;-61
2022/05/24 03:32:33;;;;;;;;;1.00;0.00;;;;;16.03;57.47;99863.75;5098691;27;45386;-61
2022/05/24 03:35:08;;;;;;;;;1.00;1.00;;;;;15.96;57.80;99860.69;5098496;27;45568;-61
2022/05/24 03:37:33;;;;;;;;;1.00;1.00;;;;;15.98;57.43;99860.56;5096497;27;45450;-61
2022/05/24 03:39:59;;;;;;;;;0.00;0.00;;;;;15.96;57.18;99865.97;5098661;27;45505;-61
2022/05/24 03:42:24;;;;;;;;;2.00;2.00;;;;;15.98;56.83;99856.09;5098257;27;45516;-61
2022/05/24 03:44:50;;;;;;;;;1.00;1.00;;;;;15.98;57.09;99864.03;5098608;27;45414;-61
2022/05/24 03:47:15;;;;;;;;;0.00;0.00;;;;;15.97;57.14;99864.16;5097888;27;45425;-61
2022/05/24 03:49:41;;;;;;;;;2.00;2.00;;;;;16.03;57.63;99871.69;5095464;27;45452;-61
2022/05/24 03:52:07;;;;;;;;;0.00;0.00;;;;;16.01;57.45;99874.47;5077825;28;46570;-61
2022/05/24 03:54:32;;;;;;;;;0.00;0.00;;;;;16.03;57.27;99882.31;5077870;28;45346;-61
2022/05/24 03:59:42;;;;;;;;;1.00;1.00;;;;;16.03;56.56;99885.78;5077893;28;45430;-61
2022/05/24 04:02:08;;;;;;;;;1.00;1.00;;;;;15.98;56.36;99887.91;5077524;28;46401;-61
2022/05/24 04:04:33;;;;;;;;;1.00;1.00;;;;;15.98;57.24;99901.19;5079663;27;45416;-61
2022/05/24 04:06:58;;;;;;;;;0.33;0.33;;;;;15.99;56.62;99902.91;5098355;27;45402;-61
2022/05/24 04:09:24;;;;;;;;;1.33;1.33;;;;;15.83;56.94;99896.94;5097567;27;45518;-61
2022/05/24 04:11:49;;;;;;;;;1.00;1.00;;;;;15.84;56.99;99903.94;5097943;27;46201;-62
2022/05/24 04:14:14;;;;;;;;;0.33;0.33;;;;;15.86;57.86;99910.84;5097912;27;45378;-61
2022/05/24 04:16:40;;;;;;;;;1.33;0.33;;;;;15.90;57.49;99914.13;5096065;27;45408;-61
2022/05/24 04:19:06;;;;;;;;;1.00;1.00;;;;;15.87;57.05;99909.03;5098023;27;45344;-61
2022/05/24 04:21:32;;;;;;;;;1.33;0.00;;;;;15.82;57.79;99900.53;5097928;27;45885;-61
2022/05/24 04:23:57;;;;;;;;;0.00;0.00;;;;;15.79;57.87;99895.44;5097818;27;45498;-62
2022/05/24 04:26:23;;;;;;;;;0.67;0.67;;;;;15.81;57.72;99901.50;5097810;27;45446;-62
2022/05/24 04:28:48;;;;;;;;;1.00;0.00;;;;;15.86;57.28;99904.69;5097960;27;45414;-61
2022/05/24 04:31:14;;;;;;;;;2.00;1.00;;;;;15.82;58.08;99909.34;5090812;27;46428;-61
2022/05/24 04:33:39;;;;;;;;;0.00;0.00;;;;;15.74;56.81;99909.00;5077452;28;45425;-61
2022/05/24 04:36:04;;;;;;;;;0.00;0.00;;;;;15.67;57.56;99920.97;5077362;28;45368;-61
2022/05/24 04:38:30;;;;;;;;;0.00;0.00;;;;;15.67;57.47;99926.28;5077615;27;45689;-61
2022/05/24 04:43:39;;;;;;;;;0.33;0.33;;;;;15.67;57.28;99924.47;5077306;27;45462;-61
2022/05/24 04:46:04;;;;;;;;;1.00;1.00;;;;;15.70;57.85;99934.03;5093618;27;45374;-61
2022/05/24 04:48:30;;;;;;;;;0.33;0.33;;;;;15.67;57.42;99945.66;5097439;27;45490;-61
2022/05/24 04:50:57;;;;;;;;;1.00;1.00;;;;;15.68;57.33;99947.38;5097338;27;45507;-61
2022/05/24 04:53:24;;;;;;;;;0.00;0.00;;;;;15.72;56.75;99955.16;5095617;27;45549;-61
2022/05/24 04:55:49;;;;;;;;;0.67;0.67;;;;;15.70;57.47;99943.81;5097182;27;45462;-62
2022/05/24 04:58:16;;;;;;;;;0.00;0.00;;;;;15.73;57.27;99944.44;5097448;27;45374;-61
2022/05/24 05:00:42;;;;;;;;;1.67;0.67;;;;;15.74;57.13;99951.44;5081764;27;46673;-61
2022/05/24 05:03:14;;;;;;;;;0.00;0.00;;;;;15.67;57.25;99956.28;5077202;27;45992;-61
2022/05/24 05:05:40;;;;;;;;;0.00;0.00;;;;;15.72;57.14;99966.63;5076694;27;45418;-61
2022/05/24 05:08:07;;;;;;;;;1.00;1.00;;;;;15.70;57.13;99959.72;5076709;28;45321;-62
2022/05/24 05:10:34;;;;;;;;;0.00;0.00;;;;;15.60;57.23;99970.88;5076258;28;46321;-65
2022/05/24 05:13:03;;;;;;;;;0.00;0.00;;;;;15.63;57.79;99970.66;5076343;28;45450;-62
2022/05/24 05:15:29;;;;;;;;;2.00;1.00;;;;;15.60;56.90;99968.22;5076902;27;45412;-62
2022/05/24 05:18:15;;;;;;;;;2.67;2.00;;;;;15.58;56.80;99980.75;5097065;27;45369;-62
2022/05/24 05:20:41;;;;;;;;;2.67;2.00;;;;;15.51;57.54;99974.16;5095959;27;46212;-62
2022/05/24 05:23:09;;;;;;;;;1.00;1.00;;;;;15.58;57.36;99983.41;5096634;27;45478;-61
2022/05/24 05:25:35;;;;;;;;;0.33;0.33;;;;;15.57;57.58;99988.78;5092016;27;45426;-61
2022/05/24 05:28:01;;;;;;;;;1.67;0.00;;;;;15.50;57.14;99982.19;5086141;27;45438;-62
2022/05/24 05:33:11;;;;;;;;;0.00;0.00;;;;;15.67;57.40;99990.75;5096771;27;45430;-65
2022/05/24 05:35:38;;;;;;;;;1.00;1.00;;;;;15.67;56.23;99997.84;5096688;27;45338;-60
2022/05/24 05:38:03;;;;;;;;;2.00;0.00;;;;;15.71;56.78;99996.72;5096717;27;45556;-60
2022/05/24 05:40:28;;;;;;;;;0.67;0.67;;;;;15.73;56.32;100008.06;5096480;27;45504;-61
2022/05/24 05:42:54;;;;;;;;;3.00;1.33;;;;;15.75;56.40;100005.31;5096423;27;45506;-61
2022/05/24 05:45:19;;;;;;;;;1.00;1.00;;;;;15.74;57.16;100008.91;5091255;27;45440;-60
2022/05/24 05:47:45;;;;;;;;;1.33;1.33;;;;;15.69;56.82;100009.25;5093961;27;45616;-62
2022/05/24 05:50:10;;;;;;;;;1.00;1.00;;;;;15.75;56.58;100013.28;5076000;27;46345;-61
2022/05/24 05:52:36;;;;;;;;;0.00;0.00;;;;;15.70;57.23;100016.22;5079053;27;45508;-61
2022/05/24 05:55:01;;;;;;;;;1.67;1.00;;;;;15.64;57.35;100009.50;5078602;27;45562;-61
2022/05/24 05:57:27;;;;;;;;;3.67;2.00;;;;;15.63;57.08;100021.03;5093501;27;45429;-61
2022/05/24 05:59:53;;;;;;;;;3.00;1.00;;;;;15.56;57.63;100019.75;5081246;27;45456;-64
2022/05/24 06:02:18;;;;;;;;;1.00;1.00;;;;;15.58;57.06;100028.47;5075928;28;45453;-61
2022/05/24 06:04:44;;;;;;;;;0.67;0.00;;;;;15.55;56.93;100023.34;5076062;27;45510;-62
2022/05/24 06:07:10;;;;;;;;;0.00;0.00;;;;;15.57;57.01;100023.25;5075632;28;45609;-66
2022/05/24 06:09:36;;;;;;;;;1.33;1.33;;;;;15.65;56.71;100040.34;5075905;27;46357;-61
2022/05/24 06:12:02;;;;;;;;;1.00;0.67;;;;;15.71;57.74;100038.28;5089808;27;45403;-60
2022/05/24 06:14:28;;;;;;;;;1.67;1.67;;;;;15.76;56.84;100042.31;5083306;27;45357;-62
2022/05/24 06:16:54;;;;;;;;;1.00;1.00;;;;;15.77;56.83;100046.69;5075540;27;45375;-61
2022/05/24 06:19:19;;;;;;;;;1.00;1.00;;;;;15.79;56.67;100049.22;5074792;28;45443;-62
2022/05/24 06:21:45;;;;;;;;;1.00;1.00;;;;;15.77;56.58;100049.34;5075120;28;45412;-61
2022/05/24 06:24:10;;;;;;;;;0.67;0.67;;;;;15.82;56.15;100055.16;5075552;28;45466;-61
2022/05/24 06:26:36;;;;;;;;;1.00;1.00;;;;;15.79;55.95;100052.72;5075450;28;45392;-61
2022/05/24 06:29:05;;;;;;;;;2.67;1.00;;;;;15.82;56.45;100055.16;5075257;28;46041;-61
2022/05/24 06:31:30;;;;;;;;;1.00;1.00;;;;;15.83;56.16;100056.06;5075228;28;45509;-61
2022/05/24 06:33:56;;;;;;;;;1.67;1.67;;;;;15.88;55.41;100067.22;5075350;28;45422;-62
2022/05/24 06:36:21;;;;;;;;;0.33;0.33;;;;;15.85;56.08;100062.94;5075102;28;45438;-62
2022/05/24 06:38:47;;;;;;;;;2.00;2.00;;;;;15.91;56.03;100067.00;5075279;28;46595;-61
2022/05/24 06:41:12;;;;;;;;;2.00;1.00;;;;;15.96;55.75;100069.31;5075259;28;45438;-62
2022/05/24 06:43:37;;;;;;;;;1.67;1.67;;;;;16.02;55.24;100067.13;5075285;28;45515;-61
2022/05/24 06:46:07;;;;;;;;;2.00;2.00;;;;;16.04;55.95;100072.31;5075052;28;45557;-61
2022/05/24 06:48:45;;;;;;;;;1.00;1.00;;;;;16.05;55.55;100071.38;5075243;28;46935;-61
2022/05/24 06:51:16;;;;;;;;;1.00;1.00;;;;;16.03;55.19;100084.72;5075380;28;45481;-62
2022/05/24 06:53:43;;;;;;;;;1.00;1.00;;;;;16.05;55.19;100074.88;5075419;28;45363;-61
2022/05/24 06:56:09;;;;;;;;;1.00;1.00;;;;;16.02;55.48;100085.69;5074943;28;45629;-62
2022/05/24 06:58:35;;;;;;;;;1.67;1.67;;;;;15.99;55.24;100083.25;5074966;28;46195;-62
2022/05/24 07:03:45;;;;;;;;;3.00;1.00;;;;;16.05;55.90;100095.25;5074976;28;45374;-61
2022/05/24 07:06:12;;;;;;;;;1.00;0.67;;;;;15.96;54.47;100094.06;5075001;28;45582;-62
2022/05/24 07:08:39;;;;;;;;;0.00;0.00;;;;;15.99;55.00;100090.38;5074786;28;45414;-62
2022/05/24 07:11:05;;;;;;;;;1.00;1.00;;;;;16.01;54.61;100099.06;5074820;28;45388;-61
2022/05/24 07:13:30;;;;;;;;;1.00;1.00;;;;;15.97;54.36;100111.66;5074865;28;45481;-61
2022/05/24 07:15:56;;;;;;;;;1.00;1.00;;;;;15.95;54.47;100105.59;5074847;28;45397;-62
2022/05/24 07:18:21;;;;;;;;;1.00;1.00;;;;;15.91;54.58;100101.47;5073414;28;45716;-60
2022/05/24 07:20:47;;;;;;;;;1.00;1.00;;;;;15.85;55.05;100104.50;5074952;28;45622;-60
2022/05/24 07:23:16;;;;;;;;;1.67;1.67;;;;;15.83;55.27;100109.94;5074721;28;45497;-62
2022/05/24 07:25:43;;;;;;;;;1.67;1.67;;;;;15.96;54.88;100103.81;5073279;28;45660;-62
2022/05/24 07:28:10;;;;;;;;;1.67;1.00;;;;;16.05;54.87;100109.38;5074748;28;46797;-62
2022/05/24 07:30:36;;;;;;;;;1.67;1.67;;;;;16.16;54.90;100115.78;5074525;28;45413;-62
2022/05/24 07:33:02;;;;;;;;;2.00;2.00;;;;;16.23;54.20;100123.22;5074772;28;45463;-61
2022/05/24 07:35:28;;;;;;;;;1.00;1.00;;;;;16.21;53.72;100109.19;5074450;28;45571;-62
2022/05/24 07:37:53;;;;;;;;;1.00;1.00;;;;;16.27;53.80;100119.41;5074245;28;45491;-62
2022/05/24 07:45:50;;;;;;;;;1.00;1.00;;;;;16.29;53.21;100114.84;5078036;28;45466;-61
2022/05/24 07:48:18;;;;;;;;;0.00;0.00;;;;;16.35;53.44;100124.19;5077738;28;45493;-61
2022/05/24 07:50:44;;;;;;;;;0.00;0.00;;;;;16.29;52.16;100114.84;5077672;27;45391;-62
2022/05/24 07:53:10;;;;;;;;;1.67;1.67;;;;;16.30;52.58;100118.34;5077914;28;45341;-62
2022/05/24 07:55:36;;;;;;;;;1.33;0.33;;;;;16.36;52.98;100120.56;5077647;28;45407;-62
2022/05/24 07:58:01;;;;;;;;;0.00;0.00;;;;;16.42;52.02;100122.84;5077445;28;46229;-60
2022/05/24 08:00:27;;;;;;;;;1.00;1.00;;;;;16.41;52.56;100137.03;5077570;28;45439;-62
2022/05/24 08:02:53;;;;;;;;;2.00;1.00;;;;;16.49;51.69;100131.22;5077790;28;45376;-62
2022/05/24 08:05:20;;;;;;;;;1.00;1.00;;;;;16.50;51.13;100127.63;5077537;28;45378;-61
2022/05/24 08:07:45;;;;;;;;;2.00;2.00;;;;;16.51;52.01;100135.47;5077007;28;46199;-61
2022/05/24 08:10:12;;;;;;;;;1.00;1.00;;;;;16.62;51.74;100131.25;5077126;28;45514;-62
2022/05/24 08:12:37;;;;;;;;;3.67;3.67;;;;;16.63;51.72;100120.53;5077283;28;45429;-61
2022/05/24 08:15:03;;;;;;;;;3.00;2.00;;;;;16.67;50.63;100134.44;5077403;28;45293;-62
2022/05/24 08:17:29;;;;;;;;;1.67;1.67;;;;;16.67;50.84;100131.78;5077141;28;45474;-61
2022/05/24 08:19:55;;;;;;;;;1.00;1.00;;;;;16.71;50.76;100122.66;5077282;28;45497;-61
2022/05/24 08:22:20;;;;;;;;;1.67;1.67;;;;;16.74;50.02;100130.44;5077132;28;45402;-60
2022/05/24 08:24:45;;;;;;;;;3.33;2.00;;;;;16.73;50.17;100126.06;5076694;28;45336;-62
2022/05/24 08:27:14;;;;;;;;;0.00;0.00;;;;;16.76;50.23;100124.06;5076647;28;45351;-62
2022/05/24 08:29:40;;;;;;;;;2.67;1.00;;;;;16.84;50.64;100120.03;5077055;27;45502;-60
2022/05/24 08:32:05;;;;;;;;;1.00;1.00;;;;;16.90;50.54;100114.28;5077019;28;45459;-60
2022/05/24 08:34:32;;;;;;;;;1.67;1.67;;;;;16.91;50.21;100124.81;5076627;28;45629;-61
2022/05/24 08:36:57;;;;;;;;;1.00;1.00;;;;;16.98;49.63;100127.94;5075001;28;46765;-60
2022/05/24 08:39:22;;;;;;;;;1.00;1.00;;;;;16.96;48.58;100132.47;5076549;27;45488;-61
2022/05/24 08:42:21;;;;;;;;;1.33;1.33;;;;;16.98;49.03;100131.44;5077013;28;45434;-60
2022/05/24 08:50:44;;;;;;;;;2.00;2.00;;;;;16.84;48.92;100128.00;5076819;28;45459;-62
2022/05/24 08:53:12;;;;;;;;;1.00;1.00;;;;;16.96;48.00;100133.34;5076809;28;45500;-61
2022/05/24 08:55:40;;;;;;;;;5.00;2.00;;;;;17.04;49.03;100129.31;5076799;28;45465;-61
2022/05/24 08:58:12;;;;;;;;;1.00;1.00;;;;;17.08;48.81;100131.63;5076240;28;46457;-61
2022/05/24 09:00:40;;;;;;;;;1.00;1.00;;;;;17.08;47.77;100139.59;5076296;28;45426;-61
2022/05/24 09:03:08;;;;;;;;;1.00;1.00;;;;;17.07;48.18;100142.38;5076492;27;45397;-62
2022/05/24 09:05:40;;;;;;;;;2.00;2.00;;;;;17.12;48.24;100125.16;5076116;28;45416;-61
2022/05/24 09:08:17;;;;;;;;;1.00;1.00;;;;;17.14;47.66;100136.53;5075488;28;45492;-61
2022/05/24 09:11:04;;;;;;;;;5.00;3.00;;;;;17.25;47.10;100130.44;5075658;28;45475;-61
2022/05/24 09:14:03;;;;;;;;;1.67;1.00;;;;;17.32;47.79;100131.69;5075824;28;45329;-61
2022/05/24 09:16:40;;;;;;;;;1.00;1.00;;;;;17.37;46.98;100137.53;5075847;28;45656;-61
2022/05/24 09:19:15;;;;;;;;;0.00;0.00;;;;;17.37;47.26;100134.88;5075571;28;46173;-60
2022/05/24 09:21:43;;;;;;;;;1.00;0.67;;;;;17.34;47.38;100137.75;5075670;28;45410;-61
2022/05/24 09:24:11;;;;;;;;;1.00;1.00;;;;;17.37;47.38;100132.22;5075510;28;45502;-60
2022/05/24 09:27:14;;;;;;;;;1.00;1.00;;;;;17.39;47.44;100140.09;5075730;28;45523;-62
2022/05/24 09:29:54;;;;;;;;;1.00;1.00;;;;;17.44;47.31;100149.44;5075624;28;46321;-61
2022/05/24 09:32:21;;;;;;;;;1.00;1.00;;;;;17.42;47.72;100145.19;5075658;28;45442;-62
2022/05/24 09:34:59;;;;;;;;;1.00;1.00;;;;;17.44;47.01;100140.63;5075379;28;45423;-62
2022/05/24 09:37:27;;;;;;;;;1.00;1.00;;;;;17.39;46.23;100146.25;5075334;28;45394;-62
2022/05/24 09:40:05;;;;;;;;;2.00;1.00;;;;;17.31;46.37;100148.63;5075089;28;45568;-61
2022/05/24 09:42:34;;;;;;;;;2.67;1.33;;;;;17.30;46.70;100160.22;5074973;28;45415;-62
2022/05/24 09:45:09;;;;;;;;;1.67;1.67;;;;;17.35;47.52;100154.56;5075514;27;45465;-61
2022/05/24 09:47:44;;;;;;;;;1.00;1.00;;;;;17.42;46.88;100150.50;5073953;28;45421;-62
2022/05/24 09:50:19;;;;;;;;;0.00;0.00;;;;;17.42;45.95;100148.69;5075322;28;46186;-61
2022/05/24 09:53:04;;;;;;;;;0.67;0.67;;;;;17.48;45.81;100147.41;5075305;28;45506;-61
2022/05/24 09:55:51;;;;;;;;;1.33;0.00;;;;;17.51;45.33;100162.28;5075548;27;45437;-61
2022/05/24 09:58:18;;;;;;;;;2.00;2.00;;;;;17.54;45.23;100164.72;5075240;28;45566;-62
2022/05/24 10:00:56;;;;;;;;;1.00;1.00;;;;;17.55;45.26;100159.31;5074916;28;45422;-62
2022/05/24 10:03:50;;;;;;;;;1.00;1.00;;;;;17.61;44.53;100152.69;5074971;28;45438;-60
2022/05/24 10:06:29;;;;;;;;;1.00;1.00;;;;;17.67;44.64;100158.41;5072368;28;45413;-60
2022/05/24 10:09:19;;;;;;;;;0.00;0.00;;;;;17.74;44.89;100164.16;5074981;28;45317;-60
2022/05/24 10:12:08;;;;;;;;;2.33;1.33;;;;;17.74;44.46;100155.34;5074783;28;45550;-61
2022/05/24 10:14:55;;;;;;;;;2.00;2.00;;;;;17.76;43.86;100156.06;5074743;28;45436;-61
2022/05/24 10:17:29;;;;;;;;;1.00;1.00;;;;;17.69;43.83;100155.66;5075055;28;45433;-62
2022/05/24 10:20:24;;;;;;;;;1.00;1.00;;;;;17.70;44.36;100159.16;5074973;28;45375;-60
2022/05/24 10:23:12;;;;;;;;;0.00;0.00;;;;;17.66;42.92;100171.84;5074518;28;46465;-61
2022/05/24 10:26:05;;;;;;;;;0.33;0.33;;;;;17.59;44.18;100167.91;5074792;28;45441;-61
2022/05/24 10:28:43;;;;;;;;;0.00;0.00;;;;;17.56;43.16;100168.13;5075094;28;45395;-61
2022/05/24 10:31:26;;;;;;;;;3.67;2.67;;;;;17.57;44.22;100169.81;5073360;28;45516;-62
2022/05/24 10:40:03;;;;;;;;;1.00;1.00;;;;;17.65;44.10;100170.13;5074538;28;45509;-60
2022/05/24 10:42:55;;;;;;;;;4.00;2.00;;;;;17.71;44.22;100169.72;5074214;28;45412;-61
2022/05/24 10:45:26;;;;;;;;;3.33;2.00;;;;;17.81;43.31;100180.53;5074334;28;46034;-62
2022/05/24 10:48:07;;;;;;;;;1.00;1.00;;;;;17.76;42.16;100172.00;5074549;27;45513;-62
2022/05/24 10:50:48;;;;;;;;;1.00;1.00;;;;;17.78;42.47;100170.09;5074446;28;45445;-61
2022/05/24 10:53:27;;;;;;;;;1.67;1.67;;;;;17.84;42.73;100167.06;5073842;28;45408;-62
2022/05/24 10:56:13;;;;;;;;;1.33;1.00;;;;;17.86;42.91;100163.28;5073634;28;46497;-63
2022/05/24 10:58:42;;;;;;;;;6.67;6.67;;;;;17.92;42.89;100161.16;5074115;28;45423;-61
2022/05/24 11:01:17;;;;;;;;;10.00;9.00;;;;;17.96;42.80;100173.28;5074844;27;45363;-61
2022/05/24 11:03:47;;;;;;;;;2.00;2.00;;;;;17.97;42.78;100169.66;5093597;27;46083;-62
2022/05/24 11:06:27;;;;;;;;;3.00;3.00;;;;;17.91;42.64;100170.94;5090728;27;45505;-61
2022/05/24 11:09:02;;;;;;;;;3.67;3.67;;;;;17.88;42.14;100173.81;5084999;27;45409;-62
2022/05/24 11:11:55;;;;;;;;;17.33;13.67;;;;;17.85;42.82;100177.56;5074573;27;45387;-62
2022/05/24 11:14:47;;;;;;;;;17.67;15.00;;;;;17.87;42.35;100172.97;5072628;28;45590;-62
2022/05/24 11:17:14;;;;;;;;;4.00;4.00;;;;;17.92;42.96;100169.13;5073747;28;46013;-62
2022/05/24 11:19:46;;;;;;;;;1.33;1.33;;;;;18.01;42.97;100179.97;5076809;27;45539;-62
2022/05/24 11:22:26;;;;;;;;;2.67;2.00;;;;;18.12;43.11;100175.66;5086204;27;45402;-63
2022/05/24 11:25:12;;;;;;;;;1.00;1.00;;;;;18.17;42.33;100177.03;5098756;27;45473;-62
2022/05/24 11:27:42;;;;;;;;;1.67;1.67;;;;;18.23;42.15;100170.41;5082723;27;46442;-63
2022/05/24 11:30:10;;;;;;;;;1.00;1.00;;;;;18.27;42.27;100163.91;5077460;27;45487;-63
2022/05/24 11:32:50;;;;;;;;;1.00;1.00;;;;;18.29;42.56;100170.78;5077893;28;45430;-61
2022/05/24 11:35:18;;;;;;;;;3.33;3.00;;;;;18.30;42.52;100171.66;5078058;28;45445;-63
2022/05/24 11:37:47;;;;;;;;;1.00;1.00;;;;;18.31;42.78;100168.00;5076590;28;45543;-63
2022/05/24 11:40:31;;;;;;;;;1.33;1.33;;;;;18.37;42.73;100174.69;5077021;28;45362;-62
2022/05/24 11:43:03;;;;;;;;;1.00;1.00;;;;;18.39;42.65;100164.78;5077933;27;45545;-63
2022/05/24 11:45:29;;;;;;;;;3.00;3.00;;;;;18.37;42.32;100164.88;5085066;27;45581;-63
2022/05/24 11:47:54;;;;;;;;;1.00;1.00;;;;;18.35;42.14;100161.50;5098648;27;45441;-63
2022/05/24 11:50:31;;;;;;;;;2.33;2.00;;;;;18.42;42.92;100162.72;5082718;27;45378;-63
2022/05/24 11:53:15;;;;;;;;;2.33;2.33;;;;;18.48;42.34;100158.75;5078055;28;45380;-63
2022/05/24 11:56:10;;;;;;;;;3.67;3.00;;;;;18.58;42.03;100153.59;5078448;27;45544;-63
2022/05/24 11:58:35;;;;;;;;;3.00;3.00;;;;;18.60;41.88;100164.97;5092407;27;47306;-63
2022/05/24 12:01:06;;;;;;;;;1.00;1.00;;;;;18.58;41.88;100165.09;5076952;28;45533;-63
2022/05/24 12:09:11;;;;;;;;;0.33;0.33;;;;;18.56;40.44;100167.00;5077282;28;45806;-63
2022/05/24 12:11:37;;;;;;;;;0.00;0.00;;;;;18.51;39.37;100154.06;5077723;28;45429;-63
2022/05/24 12:14:23;;;;;;;;;1.00;1.00;;;;;18.49;40.00;100155.13;5077785;28;45412;-62
2022/05/24 12:16:54;;;;;;;;;0.67;0.67;;;;;18.49;40.80;100169.31;5077779;28;45550;-62
2022/05/24 12:19:35;;;;;;;;;1.67;1.33;;;;;18.45;40.87;100177.63;5077685;28;45391;-62
2022/05/24 12:22:12;;;;;;;;;1.00;1.00;;;;;18.45;40.88;100175.81;5076358;28;45429;-64
2022/05/24 12:24:40;;;;;;;;;0.00;0.00;;;;;18.50;40.96;100170.16;5077318;28;45391;-63
2022/05/24 12:27:15;;;;;;;;;1.00;1.00;;;;;18.54;40.49;100177.78;5075271;28;45419;-64
2022/05/24 12:29:43;;;;;;;;;1.00;1.00;;;;;18.60;41.00;100165.81;5076347;28;45982;-62
2022/05/24 12:32:09;;;;;;;;;0.00;0.00;;;;;18.66;41.08;100177.81;5076824;28;45509;-62